Ivanhoe, Virginia
Current Conditions -  °F | °C
As of 4:35 AM on Monday 24 Nov 2014 (Local Time) from KHLX Reporting Station
Overcast Overcast  
Wind Chill: 50°   Ceiling: 700
Heat Index: 50°   Visibility: 10mi
Dew Point: 50°   Wind: 8mph
Humidity: 98%   Direction: 160°SSE
Pressure: 29.7"   Gusts: NA
Location:  36.84°N, 80.97°W
Report Text: KHLX 240935Z AUTO 16007KT 130V190 10SM OVC007 10/10 A2970 RMK AO2 T01010098
Loading
Personal Weather Stations






























Interactive Weather Map New forecast layout! Learn more

10-Day Weather Forecast

Advertisements
Track Severe Weather on mobile